createdAt,value
2019-01-02T00:01:32.360Z,-1.03
2019-01-02T00:04:03.100Z,-1.02
2019-01-02T00:06:33.874Z,-1.01
2019-01-02T00:09:05.966Z,-1.07
2019-01-02T00:11:36.288Z,-1.01
2019-01-02T00:14:06.646Z,-1.16
2019-01-02T00:16:37.318Z,-1.03
2019-01-02T00:19:08.557Z,-1.03
2019-01-02T00:21:39.696Z,-1.03
2019-01-02T00:24:10.339Z,-1.10
2019-01-02T00:26:40.902Z,-1.14
2019-01-02T00:29:11.270Z,-1.07
2019-01-02T00:31:41.958Z,-1.05
2019-01-02T00:34:12.534Z,-0.87
2019-01-02T00:36:43.241Z,-1.02
2019-01-02T00:39:13.792Z,-0.79
2019-01-02T00:41:44.156Z,-0.91
2019-01-02T00:44:15.157Z,-0.91
2019-01-02T00:46:45.452Z,-0.87
2019-01-02T00:49:16.490Z,-1.04
2019-01-02T00:51:47.151Z,-0.80
2019-01-02T00:54:18.159Z,-0.97
2019-01-02T00:56:48.450Z,-0.99
2019-01-02T00:59:19.854Z,-0.88
2019-01-02T01:01:50.348Z,-0.85
2019-01-02T01:04:21.905Z,-0.85
2019-01-02T01:06:52.206Z,-0.65
2019-01-02T01:09:23.102Z,-0.56
2019-01-02T01:11:53.758Z,-0.95
2019-01-02T01:14:24.772Z,-0.81
2019-01-02T01:16:55.044Z,-0.77
2019-01-02T01:19:26.469Z,-0.52
2019-01-02T01:21:56.751Z,-0.87
2019-01-02T01:24:27.482Z,-0.87
2019-01-02T01:26:58.462Z,-0.82
2019-01-02T01:29:28.964Z,-0.75
2019-01-02T01:31:59.235Z,-0.93
2019-01-02T01:34:29.981Z,-0.83
2019-01-02T01:37:00.255Z,-0.90
2019-01-02T01:39:31.607Z,-0.87
2019-01-02T01:42:01.864Z,-1.02
2019-01-02T01:44:32.342Z,-0.87
2019-01-02T01:47:03.236Z,-0.96
2019-01-02T01:49:34.025Z,-0.83
2019-01-02T01:52:04.301Z,-0.86
2019-01-02T01:54:35.392Z,-0.66
2019-01-02T01:57:06.149Z,-0.81
2019-01-02T01:59:36.976Z,-0.81
2019-01-02T02:02:07.620Z,-0.91
2019-01-02T02:04:38.510Z,-0.82
2019-01-02T02:07:09.093Z,-0.85
2019-01-02T02:09:39.861Z,-0.82
2019-01-02T02:12:10.204Z,-0.79
2019-01-02T02:14:41.034Z,-0.99
2019-01-02T02:17:11.849Z,-1.03
2019-01-02T02:19:42.144Z,-1.04
2019-01-02T02:22:13.230Z,-1.15
2019-01-02T02:24:43.765Z,-1.09
2019-01-02T02:27:14.740Z,-1.15
2019-01-02T02:29:45.205Z,-1.21
2019-01-02T02:32:15.968Z,-1.22
2019-01-02T02:34:46.273Z,-1.34
2019-01-02T02:37:16.560Z,-1.30
2019-01-02T02:39:47.107Z,-1.44
2019-01-02T02:42:18.248Z,-1.49
2019-01-02T02:44:49.226Z,-1.33
2019-01-02T02:47:19.722Z,-1.20
2019-01-02T02:49:50.302Z,-1.39
2019-01-02T02:52:21.081Z,-1.58
2019-01-02T02:54:51.410Z,-1.48
2019-01-02T02:57:21.712Z,-1.32
2019-01-02T02:59:52.415Z,-1.58
2019-01-02T03:02:22.684Z,-1.62
2019-01-02T03:04:53.001Z,-1.45
2019-01-02T03:07:23.660Z,-1.74
2019-01-02T03:09:54.271Z,-1.55
2019-01-02T03:12:24.968Z,-1.51
2019-01-02T03:14:55.276Z,-1.54
2019-01-02T03:17:25.548Z,-1.62
2019-01-02T03:19:56.554Z,-1.48
2019-01-02T03:22:27.397Z,-1.58
2019-01-02T03:24:58.167Z,-1.63
2019-01-02T03:27:29.310Z,-1.61
2019-01-02T03:30:00.010Z,-1.69
2019-01-02T03:32:30.603Z,-1.81
2019-01-02T03:35:01.677Z,-1.76
2019-01-02T03:37:32.061Z,-2.08
2019-01-02T03:40:02.370Z,-2.26
2019-01-02T03:42:32.744Z,-2.40
2019-01-02T03:45:03.394Z,-2.65
2019-01-02T03:47:33.686Z,-2.70
2019-01-02T03:50:04.234Z,-2.73
2019-01-02T03:52:34.939Z,-2.58
2019-01-02T03:55:06.750Z,-2.46
2019-01-02T03:57:37.048Z,-2.27
2019-01-02T04:00:09.848Z,-2.57
2019-01-02T04:02:40.123Z,-2.34
2019-01-02T04:05:11.715Z,-2.15
2019-01-02T04:07:44.419Z,-2.15
2019-01-02T04:10:15.033Z,-2.41
2019-01-02T04:12:45.328Z,-2.43
2019-01-02T04:15:15.845Z,-2.69
2019-01-02T04:17:46.129Z,-2.81
2019-01-02T04:20:16.813Z,-2.81
2019-01-02T04:22:47.128Z,-2.77
2019-01-02T04:25:17.401Z,-2.60
2019-01-02T04:27:49.160Z,-2.59
2019-01-02T04:30:19.622Z,-2.28
2019-01-02T04:32:49.903Z,-2.29
2019-01-02T04:35:20.627Z,-2.28
2019-01-02T04:37:51.210Z,-2.17
2019-01-02T04:40:21.572Z,-2.06
2019-01-02T04:42:51.949Z,-2.21
2019-01-02T04:45:22.630Z,-2.33
2019-01-02T04:47:52.967Z,-2.42
2019-01-02T04:50:23.418Z,-2.71
2019-01-02T04:52:53.749Z,-2.61
2019-01-02T04:55:24.483Z,-2.67
2019-01-02T04:57:54.836Z,-2.67
2019-01-02T05:00:25.173Z,-2.48
2019-01-02T05:02:55.541Z,-2.47
2019-01-02T05:05:26.078Z,-2.71
2019-01-02T05:07:56.374Z,-2.59
2019-01-02T05:10:26.836Z,-2.38
2019-01-02T05:12:57.415Z,-2.26
2019-01-02T05:15:27.775Z,-2.17
2019-01-02T05:17:58.069Z,-2.28
2019-01-02T05:20:28.558Z,-2.18
2019-01-02T05:22:59.369Z,-2.36
2019-01-02T05:25:30.069Z,-2.74
2019-01-02T05:28:00.421Z,-2.67
2019-01-02T05:30:30.747Z,-2.48
2019-01-02T05:33:01.492Z,-2.78
2019-01-02T05:35:31.757Z,-2.63
2019-01-02T05:38:02.092Z,-2.63
2019-01-02T05:40:32.748Z,-2.67
2019-01-02T05:43:03.070Z,-2.83
2019-01-02T05:45:33.337Z,-2.62
2019-01-02T05:48:04.114Z,-2.38
2019-01-02T05:50:34.609Z,-2.39
2019-01-02T05:53:05.418Z,-2.01
2019-01-02T05:55:35.796Z,-1.69
2019-01-02T05:58:06.275Z,-1.63
2019-01-02T06:00:39.923Z,-1.80
2019-01-02T06:03:08.897Z,-1.84
2019-01-02T06:05:39.234Z,-1.89
2019-01-02T06:08:09.952Z,-1.84
2019-01-02T06:10:40.316Z,-1.97
2019-01-02T06:13:10.640Z,-1.69
2019-01-02T06:15:41.159Z,-1.55
2019-01-02T06:18:11.827Z,-1.39
2019-01-02T06:20:42.151Z,-1.50
2019-01-02T06:23:12.799Z,-1.56
2019-01-02T06:25:43.134Z,-1.65
2019-01-02T06:28:13.673Z,-1.62
2019-01-02T06:30:44.203Z,-1.75
2019-01-02T06:33:14.610Z,-2.04
2019-01-02T06:35:45.232Z,-2.34
2019-01-02T06:38:15.718Z,-2.13
2019-01-02T06:40:46.055Z,-1.98
2019-01-02T06:43:16.418Z,-1.89
2019-01-02T06:45:47.690Z,-1.84
2019-01-02T06:48:18.008Z,-1.72
2019-01-02T06:50:49.763Z,-1.37
2019-01-02T06:53:20.401Z,-1.24
2019-01-02T06:55:50.798Z,-0.92
2019-01-02T06:58:21.223Z,-0.59
2019-01-02T07:00:52.851Z,-0.60
2019-01-02T07:03:23.621Z,-0.63
2019-01-02T07:05:54.286Z,-0.46
2019-01-02T07:08:24.590Z,-0.36
2019-01-02T07:10:55.397Z,-0.61
2019-01-02T07:13:25.792Z,-0.48
2019-01-02T07:15:56.132Z,-0.31
2019-01-02T07:18:26.585Z,-0.20
2019-01-02T07:20:57.270Z,-0.21
2019-01-02T07:23:27.577Z,-0.20
2019-01-02T07:25:57.945Z,-0.06
2019-01-02T07:28:28.504Z,0.25
2019-01-02T07:30:59.296Z,0.36
2019-01-02T07:33:38.971Z,0.29
2019-01-02T07:36:35.204Z,0.37
2019-01-02T07:39:50.793Z,0.26
2019-01-02T07:43:10.846Z,0.53
2019-01-02T07:46:20.666Z,0.49
2019-01-02T07:49:27.121Z,0.28
2019-01-02T07:52:21.475Z,0.58
2019-01-02T07:55:41.632Z,0.99
2019-01-02T07:58:58.752Z,0.83
2019-01-02T08:01:57.505Z,0.97
2019-01-02T08:05:14.800Z,0.98
2019-01-02T08:08:44.229Z,0.99
2019-01-02T08:11:34.855Z,0.98
2019-01-02T08:14:46.302Z,1.06
2019-01-02T08:18:00.638Z,1.27
2019-01-02T08:21:20.481Z,1.63
2019-01-02T08:24:14.001Z,2.01
2019-01-02T08:27:07.951Z,2.32
2019-01-02T08:30:13.999Z,2.30
2019-01-02T08:33:32.598Z,2.46
2019-01-02T08:36:27.424Z,2.54
2019-01-02T08:39:33.331Z,2.33
2019-01-02T08:42:38.775Z,2.73
2019-01-02T08:45:46.019Z,3.03
2019-01-02T08:48:52.122Z,3.26
2019-01-02T08:51:54.073Z,3.45
2019-01-02T08:55:02.435Z,3.25
2019-01-02T08:58:12.197Z,3.36
2019-01-02T09:01:19.461Z,3.44
2019-01-02T09:04:20.564Z,3.65
2019-01-02T09:07:31.994Z,3.39
2019-01-02T09:10:39.563Z,2.97
2019-01-02T09:13:42.311Z,3.53
2019-01-02T09:16:48.325Z,3.81
2019-01-02T09:20:08.653Z,4.09
2019-01-02T09:23:18.593Z,4.24
2019-01-02T09:26:19.203Z,4.27
2019-01-02T09:29:30.621Z,3.87
2019-01-02T09:32:39.188Z,4.25
2019-01-02T09:35:53.688Z,4.10
2019-01-02T09:38:47.504Z,4.30
2019-01-02T09:41:45.343Z,3.97
2019-01-02T09:44:54.011Z,3.90
2019-01-02T09:48:00.995Z,4.22
2019-01-02T09:51:21.353Z,3.75
2019-01-02T09:54:30.404Z,3.85
2019-01-02T09:57:40.727Z,3.95
2019-01-02T10:00:43.387Z,3.83
2019-01-02T10:03:40.062Z,3.75
2019-01-02T10:06:30.250Z,3.69
2019-01-02T10:09:32.787Z,3.82
2019-01-02T10:12:43.965Z,3.71
2019-01-02T10:15:38.233Z,4.11
2019-01-02T10:19:04.879Z,4.04
2019-01-02T10:22:03.905Z,3.73
2019-01-02T10:25:13.645Z,3.93
2019-01-02T10:28:04.570Z,3.83
2019-01-02T10:31:12.801Z,3.84
2019-01-02T10:34:26.059Z,3.89
2019-01-02T10:37:24.881Z,4.18
2019-01-02T10:40:26.624Z,3.88
2019-01-02T10:43:26.357Z,4.35
2019-01-02T10:46:42.777Z,3.98
2019-01-02T10:50:02.884Z,4.19
2019-01-02T10:53:14.888Z,4.03
2019-01-02T10:56:35.252Z,4.13
2019-01-02T11:00:00.632Z,3.87
2019-01-02T11:03:06.179Z,3.78
2019-01-02T11:06:09.003Z,3.75
2019-01-02T11:09:15.875Z,3.40
2019-01-02T11:12:41.697Z,3.48
2019-01-02T11:15:37.057Z,2.94
2019-01-02T11:18:53.412Z,2.97
2019-01-02T11:21:52.757Z,3.28
2019-01-02T11:25:02.805Z,3.34
2019-01-02T11:27:55.753Z,3.78
2019-01-02T11:31:13.587Z,3.44
2019-01-02T11:34:21.925Z,3.66
2019-01-02T11:37:41.293Z,3.53
2019-01-02T11:40:48.623Z,3.82
2019-01-02T11:44:02.633Z,3.75
2019-01-02T11:46:33.328Z,3.75
2019-01-02T11:49:03.749Z,3.21
2019-01-02T11:51:34.027Z,3.45
2019-01-02T11:54:04.877Z,3.65
2019-01-02T11:56:35.538Z,3.40
2019-01-02T11:59:05.926Z,3.41
2019-01-02T12:01:36.924Z,3.39
2019-01-02T12:04:07.437Z,3.19
2019-01-02T12:06:38.083Z,3.50
2019-01-02T12:09:09.640Z,3.55
2019-01-02T12:11:39.908Z,3.68
2019-01-02T12:14:10.817Z,3.72
2019-01-02T12:16:41.426Z,3.47
2019-01-02T12:19:11.997Z,3.43
2019-01-02T12:21:42.693Z,3.68
2019-01-02T12:24:13.540Z,3.68
2019-01-02T12:26:43.921Z,3.53
2019-01-02T12:29:14.692Z,3.44
2019-01-02T12:31:45.441Z,3.56
2019-01-02T12:34:15.748Z,3.62
2019-01-02T12:36:46.363Z,3.83
2019-01-02T12:39:16.667Z,3.70
2019-01-02T12:41:47.250Z,3.46
2019-01-02T12:44:18.112Z,3.56
2019-01-02T12:46:48.483Z,3.52
2019-01-02T12:49:19.233Z,3.46
2019-01-02T12:51:49.922Z,3.33
2019-01-02T12:54:20.314Z,3.37
2019-01-02T12:56:50.596Z,3.42
2019-01-02T12:59:27.023Z,3.20
2019-01-02T13:02:24.818Z,3.22
2019-01-02T13:05:28.863Z,3.18
2019-01-02T13:08:31.555Z,3.03
2019-01-02T13:11:22.696Z,3.49
2019-01-02T13:14:19.505Z,3.69
2019-01-02T13:17:39.268Z,3.74
2019-01-02T13:20:49.153Z,3.38
2019-01-02T13:23:47.400Z,3.85
2019-01-02T13:26:57.113Z,4.05
2019-01-02T13:29:54.636Z,3.86
2019-01-02T13:33:14.649Z,4.17
2019-01-02T13:36:23.504Z,3.91
2019-01-02T13:39:50.004Z,3.92
2019-01-02T13:42:51.836Z,3.49
2019-01-02T13:45:40.920Z,3.36
2019-01-02T13:48:50.638Z,2.97
2019-01-02T13:51:37.766Z,2.81
2019-01-02T13:54:08.489Z,2.63
2019-01-02T13:56:39.597Z,2.67
2019-01-02T13:59:10.302Z,2.45
2019-01-02T14:01:40.947Z,2.44
2019-01-02T14:04:12.185Z,2.32
2019-01-02T14:06:42.479Z,2.42
2019-01-02T14:09:13.539Z,2.34
2019-01-02T14:11:43.830Z,2.37
2019-01-02T14:14:14.387Z,2.17
2019-01-02T14:16:44.961Z,2.13
2019-01-02T14:19:15.457Z,2.04
2019-01-02T14:21:46.111Z,1.98
2019-01-02T14:24:16.722Z,2.04
2019-01-02T14:26:47.013Z,1.91
2019-01-02T14:29:17.794Z,2.01
2019-01-02T14:31:48.165Z,1.84
2019-01-02T14:34:18.494Z,1.83
2019-01-02T14:36:48.844Z,1.70
2019-01-02T14:39:19.403Z,1.65
2019-01-02T14:41:49.693Z,1.27
2019-01-02T14:44:20.702Z,1.36
2019-01-02T14:46:51.308Z,1.37
2019-01-02T14:49:21.674Z,1.34
2019-01-02T14:51:52.549Z,1.47
2019-01-02T14:54:22.838Z,1.27
2019-01-02T14:56:53.679Z,1.45
2019-01-02T14:59:24.690Z,1.40
2019-01-02T15:01:55.044Z,1.12
2019-01-02T15:04:25.928Z,0.95
2019-01-02T15:06:56.275Z,0.96
2019-01-02T15:09:27.630Z,0.72
2019-01-02T15:11:58.158Z,0.91
2019-01-02T15:14:29.143Z,0.58
2019-01-02T15:16:59.415Z,0.59
2019-01-02T15:19:29.841Z,0.74
2019-01-02T15:22:04.844Z,0.77
2019-01-02T15:24:32.750Z,0.72
2019-01-02T15:27:03.194Z,0.70
2019-01-02T15:29:33.944Z,0.60
2019-01-02T15:32:04.299Z,0.66
2019-01-02T15:34:34.571Z,0.23
2019-01-02T15:37:05.232Z,0.34
2019-01-02T15:39:35.683Z,0.36
2019-01-02T15:42:06.045Z,0.21
2019-01-02T15:44:36.933Z,0.33
2019-01-02T15:47:08.634Z,0.27
2019-01-02T15:49:39.230Z,0.26
2019-01-02T15:52:09.909Z,0.10
2019-01-02T15:54:40.551Z,0.43
2019-01-02T15:57:11.146Z,0.29
2019-01-02T15:59:41.583Z,0.37
2019-01-02T16:02:12.130Z,0.29
2019-01-02T16:04:42.774Z,0.09
2019-01-02T16:07:13.202Z,0.21
2019-01-02T16:09:43.496Z,0.09
2019-01-02T16:12:14.641Z,0.03
2019-01-02T16:14:45.332Z,0.19
2019-01-02T16:17:15.919Z,0.10
2019-01-02T16:19:46.390Z,-0.58
2019-01-02T16:22:17.293Z,-0.03
2019-01-02T16:24:47.582Z,-0.07
2019-01-02T16:27:18.219Z,-0.06
2019-01-02T16:29:48.768Z,-0.09
2019-01-02T16:32:19.645Z,-0.08
2019-01-02T16:34:50.026Z,-0.03
2019-01-02T16:37:20.304Z,0.17
2019-01-02T16:39:50.957Z,0.09
2019-01-02T16:42:21.638Z,0.07
2019-01-02T16:44:51.997Z,0.33
2019-01-02T16:47:22.287Z,0.16
2019-01-02T16:49:53.265Z,0.36
2019-01-02T16:52:23.581Z,0.30
2019-01-02T16:54:54.361Z,0.24
2019-01-02T16:57:25.119Z,0.16
2019-01-02T16:59:55.840Z,0.22
2019-01-02T17:02:26.496Z,0.15
2019-01-02T17:04:57.072Z,0.22
2019-01-02T17:07:27.337Z,0.36
2019-01-02T17:09:58.144Z,0.36
2019-01-02T17:12:28.445Z,0.29
2019-01-02T17:14:59.013Z,0.47
2019-01-02T17:17:29.783Z,0.29
2019-01-02T17:20:00.637Z,0.44
2019-01-02T17:22:31.040Z,0.51
2019-01-02T17:25:01.735Z,0.61
2019-01-02T17:27:32.388Z,0.53
2019-01-02T17:30:03.021Z,0.40
2019-01-02T17:32:33.546Z,0.53
2019-01-02T17:35:05.327Z,0.49
2019-01-02T17:37:35.595Z,0.40
2019-01-02T17:40:07.641Z,0.49
2019-01-02T17:42:38.361Z,0.59
2019-01-02T17:45:10.226Z,0.67
2019-01-02T17:47:40.527Z,0.65
2019-01-02T17:50:11.817Z,0.71
2019-01-02T17:52:42.313Z,0.68
2019-01-02T17:55:12.586Z,0.67
2019-01-02T17:57:43.279Z,0.52
2019-01-02T18:00:14.193Z,0.54
2019-01-02T18:02:44.481Z,0.66
2019-01-02T18:05:15.060Z,0.74
2019-01-02T18:07:45.469Z,0.59
2019-01-02T18:10:16.018Z,0.57
2019-01-02T18:12:46.325Z,0.79
2019-01-02T18:15:16.841Z,0.79
2019-01-02T18:17:47.506Z,0.91
2019-01-02T18:20:17.984Z,0.61
2019-01-02T18:22:48.743Z,0.73
2019-01-02T18:25:19.507Z,0.87
2019-01-02T18:27:50.131Z,0.95
2019-01-02T18:30:20.639Z,0.93
2019-01-02T18:32:51.292Z,0.97
2019-01-02T18:35:21.658Z,0.90
2019-01-02T18:37:52.032Z,0.80
2019-01-02T18:40:22.586Z,0.96
2019-01-02T18:42:52.886Z,0.99
2019-01-02T18:45:23.648Z,1.07
2019-01-02T18:47:54.098Z,1.07
2019-01-02T18:50:24.384Z,0.88
2019-01-02T18:52:54.914Z,0.93
2019-01-02T18:55:25.567Z,0.97
2019-01-02T18:57:55.854Z,1.10
2019-01-02T19:00:26.582Z,0.90
2019-01-02T19:02:57.265Z,0.95
2019-01-02T19:05:27.534Z,1.11
2019-01-02T19:07:58.185Z,0.99
2019-01-02T19:10:28.709Z,0.89
2019-01-02T19:12:59.378Z,0.97
2019-01-02T19:15:30.234Z,1.02
2019-01-02T19:18:00.517Z,0.82
2019-01-02T19:20:30.963Z,1.00
2019-01-02T19:23:01.830Z,0.95
2019-01-02T19:25:32.129Z,1.07
2019-01-02T19:28:02.446Z,0.96
2019-01-02T19:30:33.366Z,1.00
2019-01-02T19:33:03.649Z,0.79
2019-01-02T19:35:33.924Z,1.13
2019-01-02T19:38:04.740Z,0.87
2019-01-02T19:40:35.254Z,0.95
2019-01-02T19:43:06.148Z,1.05
2019-01-02T19:45:36.435Z,0.84
2019-01-02T19:48:06.751Z,0.93
2019-01-02T19:50:37.415Z,0.88
2019-01-02T19:53:07.856Z,0.82
2019-01-02T19:55:38.169Z,0.88
2019-01-02T19:58:09.002Z,0.95
2019-01-02T20:00:39.487Z,0.82
2019-01-02T20:03:10.001Z,0.80
2019-01-02T20:05:40.391Z,0.86
2019-01-02T20:08:11.136Z,0.97
2019-01-02T20:10:41.390Z,0.82
2019-01-02T20:13:12.393Z,0.70
2019-01-02T20:15:42.699Z,0.88
2019-01-02T20:18:13.640Z,0.66
2019-01-02T20:20:44.173Z,0.76
2019-01-02T20:23:14.488Z,0.73
2019-01-02T20:25:45.140Z,0.71
2019-01-02T20:28:16.987Z,0.83
2019-01-02T20:30:47.322Z,0.84
2019-01-02T20:33:17.726Z,0.56
2019-01-02T20:35:48.093Z,0.76
2019-01-02T20:38:18.575Z,0.50
2019-01-02T20:40:48.985Z,0.75
2019-01-02T20:43:19.747Z,0.84
2019-01-02T20:45:50.044Z,0.76
2019-01-02T20:48:20.906Z,0.66
2019-01-02T20:50:51.178Z,0.57
2019-01-02T20:53:22.218Z,0.57
2019-01-02T20:55:52.734Z,0.45
2019-01-02T20:58:23.210Z,0.53
2019-01-02T21:00:53.689Z,0.65
2019-01-02T21:03:24.511Z,0.40
2019-01-02T21:05:54.789Z,0.56
2019-01-02T21:08:25.466Z,0.35
2019-01-02T21:10:56.130Z,0.52
2019-01-02T21:13:26.714Z,0.25
2019-01-02T21:15:57.060Z,0.32
2019-01-02T21:18:27.890Z,0.31
2019-01-02T21:20:58.250Z,0.29
2019-01-02T21:23:28.919Z,0.28
2019-01-02T21:25:59.770Z,0.57
2019-01-02T21:28:30.197Z,0.53
2019-01-02T21:31:00.874Z,0.53
2019-01-02T21:33:31.571Z,0.55
2019-01-02T21:36:01.837Z,0.45
2019-01-02T21:38:32.744Z,0.50
2019-01-02T21:41:03.254Z,0.34
2019-01-02T21:43:33.890Z,0.37
2019-01-02T21:46:04.675Z,0.38
2019-01-02T21:48:41.153Z,0.21
2019-01-02T21:51:07.643Z,-1.62
2019-01-02T21:53:38.798Z,0.59
2019-01-02T21:56:09.530Z,0.63
2019-01-02T21:58:40.045Z,0.51
2019-01-02T22:01:10.402Z,0.68
2019-01-02T22:03:42.442Z,0.75
2019-01-02T22:06:12.772Z,0.58
2019-01-02T22:08:43.110Z,-1.56
2019-01-02T22:11:13.774Z,0.69
2019-01-02T22:13:44.536Z,0.48
2019-01-02T22:16:14.889Z,0.62
2019-01-02T22:18:45.710Z,0.61
2019-01-02T22:21:16.518Z,0.38
2019-01-02T22:23:47.310Z,0.46
2019-01-02T22:26:17.686Z,0.24
2019-01-02T22:28:48.232Z,0.28
2019-01-02T22:31:18.813Z,0.39
2019-01-02T22:33:49.284Z,0.33
2019-01-02T22:36:19.568Z,0.42
2019-01-02T22:38:50.370Z,0.40
2019-01-02T22:41:20.875Z,0.42
2019-01-02T22:43:51.438Z,0.40
2019-01-02T22:46:22.198Z,0.55
2019-01-02T22:48:53.100Z,0.44
2019-01-02T22:51:23.375Z,0.63
2019-01-02T22:53:53.917Z,0.76
2019-01-02T22:56:25.149Z,0.72
2019-01-02T22:58:55.546Z,0.71
2019-01-02T23:01:30.215Z,0.55
2019-01-02T23:04:28.248Z,0.62
2019-01-02T23:07:24.248Z,0.55
2019-01-02T23:10:14.835Z,0.72
2019-01-02T23:13:13.854Z,0.83
2019-01-02T23:16:13.537Z,0.63
2019-01-02T23:19:01.970Z,0.57
2019-01-02T23:21:56.956Z,0.49
2019-01-02T23:24:52.937Z,0.45
2019-01-02T23:27:41.401Z,0.72
2019-01-02T23:30:40.384Z,0.72
2019-01-02T23:33:35.700Z,0.71
2019-01-02T23:36:27.745Z,0.81
2019-01-02T23:39:26.638Z,0.63
2019-01-02T23:42:15.796Z,0.83
2019-01-02T23:45:20.077Z,0.62
2019-01-02T23:48:16.868Z,0.76
2019-01-02T23:51:05.402Z,0.74
2019-01-02T23:53:57.970Z,0.74
2019-01-02T23:56:47.331Z,0.82
2019-01-02T23:59:43.072Z,0.83
